This is the latest recevied weather packets stored in our database for station/object GW1546. If no packets are shown the sender has not sent any weather packets the latest 10 day(s).
| Time | Temp. | Humidity | Pressure | Rain* | Wind** | Luminosity | Snow |
|---|---|---|---|---|---|---|---|
| 1777781183 | 3.89° C | 94% | 989.8 hPa | 0 mm | - | - | - |
| 1777780492 | 4.44° C | 93% | 989.5 hPa | 0 mm | - | - | - |
| 1777779736 | 5° C | 92% | 989.5 hPa | 0 mm | - | - | - |
| 1777777224 | 6.11° C | 88% | 989.1 hPa | 0 mm | - | - | - |
| 1777775778 | 7.22° C | 85% | 989.1 hPa | 0 mm | - | - | - |
| 1777771814 | 7.78° C | 81% | 988.4 hPa | 0 mm | - | - | - |
| 1777769323 | 8.33° C | 77% | 988.1 hPa | 0 mm | - | - | - |
| 1777767495 | 9.44° C | 73% | 987.8 hPa | 0 mm | - | - | - |
| 1777765721 | 10° C | 66% | 987.8 hPa | 0 mm | - | - | - |
| 1777763532 | 11.11° C | 60% | 987.8 hPa | 0 mm | - | - | - |
| 1777758851 | 12.22° C | 45% | 987.1 hPa | 0 mm | - | - | - |
| 1777755634 | 12.78° C | 44% | 986.7 hPa | 0 mm | - | - | - |
| 1777751654 | 12.22° C | 44% | 987.4 hPa | 0 mm | - | - | - |
| 1777750969 | 12.22° C | 44% | 987.4 hPa | 0 mm | - | - | - |
| 1777746280 | 12.22° C | 47% | 987.8 hPa | 0 mm | - | - | - |
| 1777745574 | 11.67° C | 47% | 987.8 hPa | 0 mm | - | - | - |
| 1777737984 | 11.67° C | 46% | 988.4 hPa | 0 mm | - | - | - |
| 1777735839 | 12.22° C | 47% | 988.4 hPa | 0 mm | - | - | - |
| 1777735453 | 12.22° C | 48% | 988.8 hPa | 0 mm | - | - | - |
| 1777734042 | 12.22° C | 52% | 989.1 hPa | 0 mm | - | - | - |
| 1777732610 | 10.56° C | 56% | 988.8 hPa | 0 mm | - | - | - |
| 1777727567 | 9.44° C | 80% | 989.1 hPa | 0 mm | - | - | - |
| 1777726834 | 7.22° C | 87% | 989.5 hPa | 0 mm | - | - | - |
| 1777723604 | 3.89° C | 98% | 988.8 hPa | 0 mm | - | - | - |
| 1777722891 | 3.89° C | 98% | 989.1 hPa | 0 mm | - | - | - |
* Rain since midnight (hover to see other rain measurements)
** Current wind speed in m/s (hover to see current wind gust speed)